createdAt,value
2023-09-27T00:00:38.486Z,8.18
2023-09-27T00:05:47.643Z,8.20
2023-09-27T00:10:56.601Z,8.32
2023-09-27T00:16:06.940Z,8.43
2023-09-27T00:21:10.702Z,8.55
2023-09-27T00:26:19.431Z,8.27
2023-09-27T00:31:31.591Z,7.88
2023-09-27T00:36:40.302Z,8.40
2023-09-27T00:41:44.028Z,7.63
2023-09-27T00:46:50.915Z,7.95
2023-09-27T00:52:00.062Z,8.38
2023-09-27T00:57:08.781Z,9.00
2023-09-27T01:02:19.154Z,10.10
2023-09-27T01:07:28.032Z,9.90
2023-09-27T01:12:31.907Z,9.68
2023-09-27T01:17:55.917Z,11.50
2023-09-27T01:23:07.229Z,11.07
2023-09-27T01:28:15.997Z,9.77
2023-09-27T01:33:24.692Z,10.07
2023-09-27T01:38:35.790Z,10.05
2023-09-27T01:43:39.542Z,9.93
2023-09-27T01:48:49.435Z,10.43
2023-09-27T01:53:59.576Z,10.10
2023-09-27T01:59:08.337Z,10.60
2023-09-27T02:04:17.132Z,10.85
2023-09-27T02:09:22.484Z,10.18
2023-09-27T02:14:26.353Z,10.23
2023-09-27T02:19:35.518Z,9.38
2023-09-27T02:24:45.631Z,10.80
2023-09-27T02:29:54.348Z,9.77
2023-09-27T02:35:03.542Z,10.65
2023-09-27T02:40:15.045Z,9.93
2023-09-27T02:45:23.971Z,9.75
2023-09-27T02:50:27.703Z,10.52
2023-09-27T02:55:33.819Z,10.20
2023-09-27T03:00:37.726Z,10.13
2023-09-27T03:05:46.471Z,11.45
2023-09-27T03:10:56.615Z,10.65
2023-09-27T03:16:00.515Z,10.27
2023-09-27T03:21:09.554Z,10.90
2023-09-27T03:26:19.856Z,10.73
2023-09-27T03:31:29.165Z,11.43
2023-09-27T03:36:37.921Z,10.90
2023-09-27T03:41:43.320Z,9.98
2023-09-27T03:46:48.062Z,10.13
2023-09-27T03:51:57.296Z,10.50
2023-09-27T03:57:08.297Z,9.88
2023-09-27T04:02:17.003Z,11.02
2023-09-27T04:07:25.724Z,9.70
2023-09-27T04:12:35.903Z,10.05
2023-09-27T04:17:40.205Z,10.98
2023-09-27T04:22:45.759Z,11.70
2023-09-27T04:27:52.249Z,10.88
2023-09-27T04:33:01.356Z,11.43
2023-09-27T04:38:11.235Z,11.43
2023-09-27T04:43:21.359Z,10.30
2023-09-27T04:48:30.914Z,11.00
2023-09-27T04:53:38.406Z,10.93
2023-09-27T04:58:48.873Z,12.25
2023-09-27T05:03:57.708Z,12.60
2023-09-27T05:09:01.473Z,12.68
2023-09-27T05:14:07.785Z,12.55
2023-09-27T05:19:17.485Z,12.30
2023-09-27T05:24:24.485Z,12.65
2023-09-27T05:29:37.138Z,13.82
2023-09-27T05:34:40.981Z,12.65
2023-09-27T05:39:44.742Z,12.77
2023-09-27T05:44:49.944Z,12.88
2023-09-27T05:49:54.312Z,11.48
2023-09-27T05:55:03.372Z,10.30
2023-09-27T06:00:23.894Z,10.43
2023-09-27T06:05:33.599Z,10.13
2023-09-27T06:10:42.463Z,8.63
2023-09-27T06:15:52.631Z,9.07
2023-09-27T06:21:04.656Z,9.00
2023-09-27T06:26:10.048Z,8.00
2023-09-27T06:31:20.295Z,8.07
2023-09-27T06:36:24.145Z,9.20
2023-09-27T06:41:27.931Z,7.47
2023-09-27T06:46:48.158Z,7.43
2023-09-27T06:51:57.891Z,7.28
2023-09-27T06:57:06.750Z,4.85
2023-09-27T07:02:11.895Z,4.78
2023-09-27T07:07:21.822Z,4.45
2023-09-27T07:12:25.714Z,4.70
2023-09-27T07:17:36.398Z,4.90
2023-09-27T07:22:45.328Z,4.32
2023-09-27T07:27:50.318Z,4.35
2023-09-27T07:33:00.555Z,4.72
2023-09-27T07:38:09.620Z,4.95
2023-09-27T07:43:19.389Z,4.28
2023-09-27T07:48:33.062Z,3.83
2023-09-27T07:53:42.475Z,4.10
2023-09-27T07:58:53.645Z,4.50
2023-09-27T08:04:11.723Z,3.92
2023-09-27T08:09:38.815Z,4.22
2023-09-27T08:14:50.065Z,5.30
2023-09-27T08:20:00.552Z,5.45
2023-09-27T08:25:05.701Z,4.15
2023-09-27T08:30:15.217Z,5.15
2023-09-27T08:35:26.470Z,5.30
2023-09-27T08:40:35.307Z,4.97
2023-09-27T08:45:46.308Z,5.47
2023-09-27T08:50:57.010Z,5.93
2023-09-27T08:56:07.546Z,4.70
2023-09-27T09:01:12.361Z,5.22
2023-09-27T09:06:18.620Z,4.22
2023-09-27T09:11:27.527Z,4.65
2023-09-27T09:16:41.425Z,5.10
2023-09-27T09:21:58.907Z,4.97
2023-09-27T09:27:10.061Z,5.45
2023-09-27T09:32:20.850Z,4.88
2023-09-27T09:37:28.317Z,4.07
2023-09-27T09:42:34.239Z,4.80
2023-09-27T09:47:45.116Z,4.70
2023-09-27T09:52:58.448Z,4.90
2023-09-27T09:58:14.876Z,5.00
2023-09-27T10:03:24.420Z,4.50
2023-09-27T10:13:48.615Z,4.53
2023-09-27T10:18:57.341Z,4.95
2023-09-27T10:24:08.620Z,4.43
2023-09-27T10:29:18.731Z,4.90
2023-09-27T10:34:41.051Z,4.70
2023-09-27T10:40:21.227Z,4.78
2023-09-27T10:45:30.199Z,4.25
2023-09-27T10:50:40.197Z,4.37
2023-09-27T10:55:45.572Z,4.53
2023-09-27T11:00:54.131Z,4.22
2023-09-27T11:05:59.286Z,4.63
2023-09-27T11:11:10.280Z,4.18
2023-09-27T11:16:19.740Z,5.05
2023-09-27T11:21:28.784Z,4.43
2023-09-27T11:26:38.961Z,4.70
2023-09-27T11:31:42.986Z,4.43
2023-09-27T11:36:48.160Z,4.38
2023-09-27T11:42:02.269Z,4.10
2023-09-27T11:47:07.379Z,4.63
2023-09-27T11:52:16.428Z,3.88
2023-09-27T11:57:26.610Z,4.60
2023-09-27T12:02:35.084Z,4.07
2023-09-27T12:07:49.770Z,4.80
2023-09-27T12:18:08.533Z,4.18
2023-09-27T12:23:12.404Z,4.38
2023-09-27T12:28:24.099Z,4.25
2023-09-27T12:33:27.976Z,4.07
2023-09-27T12:38:32.463Z,4.50
2023-09-27T12:43:42.907Z,4.43
2023-09-27T12:48:46.643Z,4.28
2023-09-27T12:53:55.522Z,4.50
2023-09-27T12:59:05.885Z,3.22
2023-09-27T13:04:10.557Z,4.07
2023-09-27T13:09:22.036Z,4.07
2023-09-27T13:14:32.898Z,3.78
2023-09-27T13:19:41.787Z,3.97
2023-09-27T13:24:45.623Z,3.92
2023-09-27T13:29:55.936Z,4.10
2023-09-27T13:34:59.716Z,3.40
2023-09-27T13:40:14.202Z,3.72
2023-09-27T13:45:24.748Z,3.00
2023-09-27T13:50:36.866Z,3.75
2023-09-27T13:55:46.142Z,3.40
2023-09-27T14:00:56.239Z,3.30
2023-09-27T14:06:05.647Z,3.78
2023-09-27T14:11:15.310Z,3.63
2023-09-27T14:16:21.578Z,3.47
2023-09-27T14:21:30.401Z,3.33
2023-09-27T14:26:40.220Z,3.38
2023-09-27T14:31:50.329Z,3.38
2023-09-27T14:36:54.095Z,3.65
2023-09-27T14:42:04.071Z,3.15
2023-09-27T14:47:14.253Z,3.80
2023-09-27T14:52:23.071Z,3.50
2023-09-27T14:57:33.565Z,3.33
2023-09-27T15:02:44.268Z,3.70
2023-09-27T15:07:48.588Z,3.85
2023-09-27T15:12:57.504Z,3.50
2023-09-27T15:18:07.880Z,4.20
2023-09-27T15:23:12.695Z,3.60
2023-09-27T15:28:21.603Z,3.33
2023-09-27T15:33:32.352Z,4.00
2023-09-27T15:38:44.615Z,3.83
2023-09-27T15:43:53.660Z,3.70
2023-09-27T15:49:10.053Z,3.53
2023-09-27T15:54:19.706Z,3.75
2023-09-27T15:59:28.610Z,3.63
2023-09-27T16:04:51.617Z,3.57
2023-09-27T16:10:00.948Z,3.67
2023-09-27T16:15:10.734Z,4.30
2023-09-27T16:25:25.008Z,3.90
2023-09-27T16:30:34.230Z,3.95
2023-09-27T16:35:44.918Z,3.50
2023-09-27T16:40:54.231Z,4.03
2023-09-27T16:46:08.006Z,3.72
2023-09-27T16:51:13.242Z,3.80
2023-09-27T16:56:22.029Z,4.35
2023-09-27T17:01:30.948Z,3.95
2023-09-27T17:06:41.697Z,5.03
2023-09-27T17:11:45.565Z,3.75
2023-09-27T17:16:50.039Z,4.47
2023-09-27T17:21:55.514Z,4.95
2023-09-27T17:32:13.079Z,7.32
2023-09-27T17:37:23.258Z,5.50
2023-09-27T17:42:32.104Z,4.55
2023-09-27T17:47:41.741Z,4.65
2023-09-27T17:52:53.420Z,4.37
2023-09-27T17:58:02.137Z,4.10
2023-09-27T18:03:06.650Z,4.93
2023-09-27T18:08:14.106Z,5.05
2023-09-27T18:13:19.586Z,4.68
2023-09-27T18:18:23.595Z,4.72
2023-09-27T18:23:28.797Z,4.93
2023-09-27T18:28:37.896Z,5.25
2023-09-27T18:33:47.840Z,5.35
2023-09-27T18:38:53.030Z,5.82
2023-09-27T18:44:01.843Z,5.75
2023-09-27T18:49:06.024Z,6.20
2023-09-27T18:54:16.283Z,6.15
2023-09-27T18:59:27.027Z,5.47
2023-09-27T19:04:30.809Z,5.22
2023-09-27T19:09:35.981Z,5.15
2023-09-27T19:14:46.156Z,6.40
2023-09-27T19:19:55.071Z,6.28
2023-09-27T19:25:05.522Z,5.40
2023-09-27T19:30:15.940Z,5.25
2023-09-27T19:35:19.687Z,5.20
2023-09-27T19:40:24.796Z,5.97
2023-09-27T19:45:34.342Z,5.40
2023-09-27T19:50:38.170Z,6.30
2023-09-27T19:55:48.341Z,5.65
2023-09-27T20:00:52.594Z,5.03
2023-09-27T20:06:02.083Z,5.65
2023-09-27T20:11:14.720Z,5.65
2023-09-27T20:16:19.209Z,5.40
2023-09-27T20:21:23.103Z,5.25
2023-09-27T20:26:37.244Z,5.53
2023-09-27T20:31:41.074Z,6.00
2023-09-27T20:36:49.986Z,5.95
2023-09-27T20:41:55.298Z,6.32
2023-09-27T20:47:05.162Z,6.30
2023-09-27T20:52:14.074Z,6.20
2023-09-27T20:57:24.451Z,7.07
2023-09-27T21:02:28.262Z,5.72
2023-09-27T21:07:39.045Z,6.25
2023-09-27T21:12:46.904Z,5.90
2023-09-27T21:17:55.673Z,6.22
2023-09-27T21:23:04.683Z,6.30
2023-09-27T21:28:14.879Z,6.28
2023-09-27T21:33:24.029Z,7.20
2023-09-27T21:38:28.251Z,6.95
2023-09-27T21:43:40.426Z,6.95
2023-09-27T21:48:50.061Z,6.78
2023-09-27T21:53:54.055Z,6.68
2023-09-27T21:59:04.591Z,6.55
2023-09-27T22:04:08.756Z,6.40
2023-09-27T22:09:12.654Z,6.85
2023-09-27T22:14:23.329Z,6.32
2023-09-27T22:19:29.088Z,6.80
2023-09-27T22:24:33.207Z,7.25
2023-09-27T22:29:43.444Z,6.43
2023-09-27T22:34:57.238Z,7.43
2023-09-27T22:40:15.112Z,6.43
2023-09-27T22:45:36.317Z,6.55
2023-09-27T22:50:47.013Z,7.00
2023-09-27T22:55:59.334Z,6.78
2023-09-27T23:06:47.992Z,7.93
2023-09-27T23:12:17.293Z,6.88
2023-09-27T23:17:29.068Z,6.70
2023-09-27T23:22:54.418Z,7.13
2023-09-27T23:28:03.556Z,6.97
2023-09-27T23:33:07.400Z,7.00
2023-09-27T23:38:31.569Z,7.60
2023-09-27T23:43:42.059Z,7.20
2023-09-27T23:48:45.771Z,8.05
2023-09-27T23:53:50.910Z,6.80
2023-09-27T23:59:08.632Z,6.77
